Time;durP1;ratioP1;P1;durP2;ratioP2;P2;SDS_P1;SDS_P2;PMS_P1;PMS_P2;Temp;Humidity;BMP_temperature;BMP_pressure;BME280_temperature;BME280_humidity;BME280_pressure;Samples;Min_cycle;Max_cycle;Signal;HPM_P1;HPM_P2
2022/07/22 00:00:11;;;;;;;6.03;1.40;;;15.60;1.00;;;;;;5047338;28;20021;-75
2022/07/22 00:02:36;;;;;;;7.22;1.48;;;15.60;1.00;;;;;;5039793;28;20032;-75
2022/07/22 00:05:03;;;;;;;5.50;1.02;;;15.70;1.00;;;;;;5045925;28;20018;-75
2022/07/22 00:07:28;;;;;;;4.28;1.23;;;15.70;1.00;;;;;;5042386;28;20465;-75
2022/07/22 00:09:55;;;;;;;3.88;1.15;;;15.70;1.00;;;;;;5043464;28;20029;-76
2022/07/22 00:12:20;;;;;;;4.57;1.20;;;15.70;1.00;;;;;;5028081;28;20083;-75
2022/07/22 00:14:46;;;;;;;5.07;1.20;;;15.60;1.00;;;;;;5032130;28;20022;-75
2022/07/22 00:17:11;;;;;;;6.10;1.40;;;15.60;1.00;;;;;;5044331;28;20104;-75
2022/07/22 00:19:37;;;;;;;2.00;0.85;;;15.60;1.00;;;;;;5031884;28;20018;-75
2022/07/22 00:22:03;;;;;;;2.72;0.88;;;15.70;1.00;;;;;;5031997;28;20025;-75
2022/07/22 00:24:28;;;;;;;3.80;1.35;;;15.60;1.00;;;;;;5041672;28;20033;-75
2022/07/22 00:26:54;;;;;;;5.10;0.90;;;15.60;1.00;;;;;;5036123;28;20121;-75
2022/07/22 00:29:20;;;;;;;2.47;0.88;;;15.60;1.00;;;;;;5045895;28;20021;-75
2022/07/22 00:31:45;;;;;;;3.05;1.00;;;15.60;1.00;;;;;;5047787;23;20784;-79
2022/07/22 00:34:11;;;;;;;5.15;1.02;;;15.60;1.00;;;;;;5037815;28;20037;-80
2022/07/22 00:36:37;;;;;;;2.00;0.93;;;15.60;1.00;;;;;;5029329;28;20026;-80
2022/07/22 00:39:03;;;;;;;5.43;1.13;;;15.60;1.00;;;;;;5035197;28;20658;-80
2022/07/22 00:41:28;;;;;;;4.93;1.10;;;15.60;1.00;;;;;;5031058;28;20029;-80
2022/07/22 00:43:54;;;;;;;1.98;1.08;;;15.60;1.00;;;;;;5031953;28;20041;-79
2022/07/22 00:46:19;;;;;;;3.00;0.90;;;15.60;1.00;;;;;;5028096;28;20022;-78
2022/07/22 00:48:46;;;;;;;2.45;0.90;;;15.60;1.00;;;;;;5034687;28;20022;-79
2022/07/22 00:51:11;;;;;;;5.35;1.05;;;15.60;1.00;;;;;;5027667;28;20355;-80
2022/07/22 00:53:37;;;;;;;2.83;1.05;;;15.60;1.00;;;;;;5037428;28;20473;-80
2022/07/22 00:56:03;;;;;;;3.95;1.17;;;15.50;1.00;;;;;;5035898;28;20021;-79
2022/07/22 00:58:29;;;;;;;6.68;1.58;;;15.60;1.00;;;;;;5036470;28;20021;-80
2022/07/22 01:00:54;;;;;;;1.63;0.93;;;15.50;1.00;;;;;;5033905;28;20099;-80
2022/07/22 01:03:20;;;;;;;3.38;1.08;;;15.50;1.00;;;;;;5028439;28;20042;-80
2022/07/22 01:05:46;;;;;;;4.93;1.40;;;15.40;1.00;;;;;;5034475;28;20032;-80
2022/07/22 01:08:11;;;;;;;4.95;1.10;;;15.60;1.00;;;;;;5027663;28;20113;-80
2022/07/22 01:10:37;;;;;;;3.67;1.50;;;15.50;1.00;;;;;;5031795;28;20014;-80
2022/07/22 01:13:03;;;;;;;3.78;1.25;;;15.50;1.00;;;;;;5040537;28;20081;-80
2022/07/22 01:15:28;;;;;;;5.00;2.00;;;15.60;1.00;;;;;;5040249;28;20030;-79
2022/07/22 01:17:54;;;;;;;7.38;1.92;;;15.60;1.00;;;;;;5040810;28;20469;-80
2022/07/22 01:20:19;;;;;;;4.80;1.55;;;15.60;1.00;;;;;;5030613;28;20026;-79
2022/07/22 01:22:45;;;;;;;7.03;1.20;;;15.50;1.00;;;;;;5033893;28;20021;-79
2022/07/22 01:25:11;;;;;;;6.30;1.58;;;15.60;1.00;;;;;;5026848;28;20105;-79
2022/07/22 01:27:37;;;;;;;3.22;1.27;;;15.60;1.00;;;;;;5038869;28;20075;-79
2022/07/22 01:30:06;;;;;;;3.63;1.20;;;15.60;1.00;;;;;;5040149;28;20029;-79
2022/07/22 01:32:32;;;;;;;3.35;1.40;;;15.60;1.00;;;;;;5026946;28;20057;-80
2022/07/22 01:34:58;;;;;;;3.95;1.30;;;15.60;1.00;;;;;;5033261;28;20080;-80
2022/07/22 01:37:23;;;;;;;5.35;1.42;;;15.60;1.00;;;;;;5029440;28;20024;-80
2022/07/22 01:39:49;;;;;;;5.15;1.38;;;15.50;1.00;;;;;;5039143;28;20104;-80
2022/07/22 01:42:15;;;;;;;3.13;1.10;;;15.70;1.00;;;;;;5031994;28;20037;-79
2022/07/22 01:44:41;;;;;;;3.55;1.60;;;15.60;1.00;;;;;;5036073;28;20041;-79
2022/07/22 01:47:07;;;;;;;1.98;0.90;;;15.60;1.00;;;;;;5046790;28;20037;-79
2022/07/22 01:49:34;;;;;;;1.55;0.70;;;15.60;1.00;;;;;;5047964;28;20030;-79
2022/07/22 01:52:00;;;;;;;4.35;0.98;;;15.60;1.00;;;;;;5047751;28;20116;-79
2022/07/22 01:54:26;;;;;;;1.63;0.70;;;15.50;99.90;;;;;;5048773;28;20056;-79
2022/07/22 01:56:51;;;;;;;5.53;1.08;;;15.50;99.90;;;;;;5047930;28;20033;-79
2022/07/22 01:59:17;;;;;;;3.22;0.80;;;15.50;99.90;;;;;;5049914;28;20021;-79
2022/07/22 02:01:43;;;;;;;4.30;1.15;;;15.50;99.90;;;;;;5035480;28;20058;-80
2022/07/22 02:04:08;;;;;;;4.15;0.98;;;15.50;99.90;;;;;;5030671;28;20049;-80
2022/07/22 02:06:34;;;;;;;2.35;1.10;;;15.50;99.90;;;;;;5024356;28;20030;-80
2022/07/22 02:08:59;;;;;;;3.35;1.20;;;15.40;99.90;;;;;;5034009;28;20703;-80
2022/07/22 02:11:25;;;;;;;3.47;1.10;;;15.40;1.00;;;;;;5039330;28;20373;-80
2022/07/22 02:13:50;;;;;;;2.10;0.98;;;15.30;1.00;;;;;;5042829;28;20071;-80
2022/07/22 02:16:16;;;;;;;2.47;0.90;;;15.30;99.90;;;;;;5041236;28;20092;-80
2022/07/22 02:18:41;;;;;;;2.40;1.08;;;15.40;99.90;;;;;;5040460;28;20073;-80
2022/07/22 02:21:07;;;;;;;3.42;1.00;;;15.40;99.90;;;;;;5030493;28;20029;-80
2022/07/22 02:23:33;;;;;;;4.00;1.15;;;15.40;99.90;;;;;;5037942;28;20077;-80
2022/07/22 02:25:58;;;;;;;2.38;1.85;;;15.40;99.90;;;;;;5037780;28;20022;-80
2022/07/22 02:28:24;;;;;;;3.50;1.30;;;15.40;99.90;;;;;;5042608;28;20047;-80
2022/07/22 02:30:49;;;;;;;4.18;1.30;;;15.40;99.90;;;;;;5038688;28;20100;-81
2022/07/22 02:33:15;;;;;;;4.20;1.35;;;15.40;99.90;;;;;;5035567;28;20052;-80
2022/07/22 02:35:40;;;;;;;4.55;1.50;;;15.40;99.90;;;;;;5031371;28;20053;-80
2022/07/22 02:38:07;;;;;;;3.10;1.40;;;15.30;99.90;;;;;;5031464;28;20017;-80
2022/07/22 02:40:33;;;;;;;5.57;1.67;;;15.40;99.90;;;;;;5038963;28;20028;-80
2022/07/22 02:42:59;;;;;;;4.93;1.55;;;15.30;1.00;;;;;;5040093;28;20033;-79
2022/07/22 02:45:25;;;;;;;3.88;1.48;;;15.20;1.00;;;;;;5027730;28;20025;-80
2022/07/22 02:47:53;;;;;;;3.03;1.30;;;15.30;99.90;;;;;;5040068;28;20056;-80
2022/07/22 02:50:19;;;;;;;2.97;1.10;;;15.20;99.90;;;;;;5038475;28;20022;-80
2022/07/22 02:52:45;;;;;;;8.25;1.30;;;15.20;99.90;;;;;;5038359;28;20040;-80
2022/07/22 02:55:11;;;;;;;2.25;0.90;;;15.20;99.90;;;;;;5025570;28;20030;-80
2022/07/22 02:57:38;;;;;;;3.58;1.33;;;15.20;99.90;;;;;;5030648;28;20029;-80
2022/07/22 03:00:04;;;;;;;2.85;1.20;;;15.20;99.90;;;;;;5034784;28;20021;-80
2022/07/22 03:02:30;;;;;;;1.90;0.95;;;15.10;99.90;;;;;;5025279;28;20449;-80
2022/07/22 03:04:55;;;;;;;2.85;1.13;;;15.10;99.90;;;;;;5026432;28;20033;-80
2022/07/22 03:07:21;;;;;;;2.13;1.20;;;15.10;1.00;;;;;;5025215;28;20026;-79
2022/07/22 03:09:46;;;;;;;3.30;1.30;;;15.10;1.00;;;;;;5041591;28;20048;-80
2022/07/22 03:12:12;;;;;;;5.43;1.33;;;15.00;1.00;;;;;;5035398;28;20037;-80
2022/07/22 03:14:37;;;;;;;2.88;1.05;;;15.00;1.00;;;;;;5039546;28;20033;-79
2022/07/22 03:17:03;;;;;;;2.83;1.17;;;15.10;1.00;;;;;;5039184;28;20560;-79
2022/07/22 03:19:29;;;;;;;3.22;1.08;;;15.20;1.00;;;;;;5031302;28;20029;-79
2022/07/22 03:21:54;;;;;;;3.00;1.17;;;15.10;99.90;;;;;;5030804;28;20053;-80
2022/07/22 03:24:20;;;;;;;3.75;1.30;;;15.10;1.00;;;;;;5035872;28;20026;-79
2022/07/22 03:26:45;;;;;;;4.32;1.40;;;15.20;99.90;;;;;;5036894;28;20035;-79
2022/07/22 03:29:11;;;;;;;4.03;1.77;;;15.00;1.00;;;;;;5026168;28;20036;-79
2022/07/22 03:31:36;;;;;;;2.60;1.55;;;15.30;1.00;;;;;;5023736;28;20030;-79
2022/07/22 03:34:02;;;;;;;3.33;1.50;;;15.20;1.00;;;;;;5033462;28;20077;-79
2022/07/22 03:36:31;;;;;;;4.30;1.67;;;15.10;1.00;;;;;;5021669;28;20381;-80
2022/07/22 03:38:57;;;;;;;5.38;1.60;;;15.10;1.00;;;;;;5031419;28;20075;-80
2022/07/22 03:41:23;;;;;;;2.35;1.63;;;15.10;1.00;;;;;;5036165;28;20057;-80
2022/07/22 03:43:48;;;;;;;5.80;1.55;;;15.10;1.00;;;;;;5039083;28;20104;-80
2022/07/22 03:46:14;;;;;;;4.50;1.50;;;15.00;1.00;;;;;;5039571;28;20021;-79
2022/07/22 03:48:40;;;;;;;6.47;1.40;;;15.10;1.00;;;;;;5035353;28;20347;-79
2022/07/22 03:51:06;;;;;;;3.88;1.55;;;15.10;1.00;;;;;;5021877;28;20068;-79
2022/07/22 03:53:32;;;;;;;2.65;1.50;;;15.10;1.00;;;;;;5021774;28;20034;-80
2022/07/22 03:55:58;;;;;;;5.03;1.73;;;15.10;1.00;;;;;;5029849;28;20172;-79
2022/07/22 03:58:26;;;;;;;3.47;1.30;;;15.10;1.00;;;;;;5038458;28;20022;-79
2022/07/22 04:00:52;;;;;;;4.68;1.52;;;15.00;1.00;;;;;;5032551;28;20014;-80
2022/07/22 04:03:18;;;;;;;6.55;1.45;;;15.10;1.00;;;;;;5031708;28;20042;-80
2022/07/22 04:05:44;;;;;;;3.60;1.63;;;15.20;1.00;;;;;;5038854;28;20048;-79
2022/07/22 04:08:10;;;;;;;3.67;1.55;;;15.20;1.00;;;;;;5034557;28;20029;-80
2022/07/22 04:10:36;;;;;;;4.60;1.55;;;15.20;1.00;;;;;;5037503;28;20029;-80
2022/07/22 04:13:01;;;;;;;7.15;1.33;;;15.30;1.00;;;;;;5038810;28;20444;-79
2022/07/22 04:15:27;;;;;;;6.00;1.40;;;15.30;1.00;;;;;;5041678;28;20026;-79
2022/07/22 04:17:53;;;;;;;4.93;1.67;;;15.30;1.00;;;;;;5033372;28;20021;-79
2022/07/22 04:20:18;;;;;;;6.05;1.70;;;15.30;1.00;;;;;;5024067;28;20041;-79
2022/07/22 04:22:44;;;;;;;7.65;1.75;;;15.40;1.00;;;;;;5035491;28;20038;-79
2022/07/22 04:25:10;;;;;;;4.97;2.50;;;15.50;1.00;;;;;;5034596;28;20062;-79
2022/07/22 04:27:36;;;;;;;2.95;1.38;;;15.40;1.00;;;;;;5020805;28;20021;-79
2022/07/22 04:30:02;;;;;;;6.07;1.52;;;15.40;1.00;;;;;;5028883;28;20430;-79
2022/07/22 04:32:27;;;;;;;6.88;1.30;;;15.40;1.00;;;;;;5035789;28;20045;-78
2022/07/22 04:34:53;;;;;;;2.30;1.25;;;15.40;1.00;;;;;;5029245;28;20492;-79
2022/07/22 04:37:18;;;;;;;3.92;1.27;;;15.40;1.00;;;;;;5019053;28;20022;-78
2022/07/22 04:39:44;;;;;;;3.58;1.27;;;15.40;1.00;;;;;;5020752;28;20085;-79
2022/07/22 04:42:10;;;;;;;3.20;1.40;;;15.60;99.90;;;;;;5033897;28;20034;-79
2022/07/22 04:44:35;;;;;;;3.80;1.27;;;15.60;99.90;;;;;;5031722;28;20104;-80
2022/07/22 04:47:01;;;;;;;3.65;1.27;;;15.60;99.90;;;;;;5039326;28;20026;-80
2022/07/22 04:49:26;;;;;;;3.15;1.38;;;15.80;99.90;;;;;;5031474;28;20539;-80
2022/07/22 04:51:52;;;;;;;3.17;1.30;;;15.70;99.90;;;;;;5037018;28;20071;-80
2022/07/22 04:54:18;;;;;;;3.85;1.23;;;15.70;99.90;;;;;;5030198;28;20022;-80
2022/07/22 04:56:43;;;;;;;3.78;1.40;;;15.80;99.90;;;;;;5042913;28;20028;-80
2022/07/22 04:59:09;;;;;;;2.63;1.10;;;15.80;99.90;;;;;;5029559;28;20026;-80
2022/07/22 05:01:34;;;;;;;4.20;1.25;;;15.90;99.90;;;;;;5037003;28;20032;-80
2022/07/22 05:04:00;;;;;;;3.80;1.40;;;16.00;99.90;;;;;;5031813;28;20039;-80
2022/07/22 05:06:25;;;;;;;3.92;1.38;;;15.90;99.90;;;;;;5039412;28;20079;-80
2022/07/22 05:08:51;;;;;;;3.00;1.20;;;16.00;99.90;;;;;;5026183;28;20450;-80
2022/07/22 05:11:17;;;;;;;3.10;1.10;;;16.00;99.90;;;;;;5040117;28;20370;-80
2022/07/22 05:13:43;;;;;;;2.72;1.38;;;16.00;99.90;;;;;;5039984;28;20116;-80
2022/07/22 05:16:08;;;;;;;5.15;1.60;;;16.20;99.90;;;;;;5039807;28;20049;-80
2022/07/22 05:18:34;;;;;;;2.97;1.48;;;16.20;99.90;;;;;;5033948;28;20018;-79
2022/07/22 05:21:01;;;;;;;4.13;1.50;;;16.30;99.90;;;;;;5025580;28;20033;-80
2022/07/22 05:23:26;;;;;;;2.85;1.52;;;16.30;99.90;;;;;;5038243;28;20026;-80
2022/07/22 05:25:52;;;;;;;1.75;1.38;;;16.40;99.90;;;;;;5036744;28;20505;-79
2022/07/22 05:28:19;;;;;;;4.18;1.45;;;16.40;99.90;;;;;;5028528;28;20037;-81
2022/07/22 05:30:44;;;;;;;3.08;1.20;;;16.40;1.00;;;;;;5033743;28;20512;-80
2022/07/22 05:33:10;;;;;;;2.15;1.10;;;16.40;99.90;;;;;;5026757;28;20050;-80
2022/07/22 05:35:36;;;;;;;2.50;1.20;;;16.40;1.00;;;;;;5042355;28;20092;-79
2022/07/22 05:38:01;;;;;;;3.15;1.45;;;16.50;99.90;;;;;;5043105;28;20040;-80
2022/07/22 05:40:28;;;;;;;3.35;1.30;;;16.50;1.00;;;;;;5039140;28;20014;-80
2022/07/22 05:42:54;;;;;;;3.10;1.15;;;16.60;99.90;;;;;;5039503;28;20053;-79
2022/07/22 05:45:19;;;;;;;5.63;1.70;;;16.60;99.90;;;;;;5041185;28;20021;-79
2022/07/22 05:47:45;;;;;;;3.20;1.20;;;16.60;99.90;;;;;;5032638;28;20037;-79
2022/07/22 05:50:11;;;;;;;5.20;1.52;;;16.60;99.90;;;;;;5023584;28;20033;-80
2022/07/22 05:52:38;;;;;;;5.07;1.30;;;16.60;99.90;;;;;;5032348;28;20034;-79
2022/07/22 05:55:04;;;;;;;1.70;1.10;;;16.70;99.90;;;;;;5019701;28;20022;-79
2022/07/22 05:57:31;;;;;;;3.97;1.00;;;16.60;99.90;;;;;;5039451;28;20018;-79
2022/07/22 05:59:57;;;;;;;2.05;1.10;;;16.60;99.90;;;;;;5045008;28;20029;-79
2022/07/22 06:02:23;;;;;;;3.88;1.20;;;16.80;99.90;;;;;;5044230;28;20033;-79
2022/07/22 06:04:48;;;;;;;4.45;1.00;;;16.70;99.90;;;;;;5042679;28;20013;-79
2022/07/22 06:07:14;;;;;;;1.42;0.80;;;16.70;99.90;;;;;;5043561;28;20025;-79
2022/07/22 06:09:40;;;;;;;8.70;1.40;;;16.80;99.90;;;;;;5042657;28;20018;-80
2022/07/22 06:12:06;;;;;;;3.22;1.23;;;16.80;99.90;;;;;;5042502;28;20032;-79
2022/07/22 06:14:32;;;;;;;4.20;1.40;;;17.00;99.90;;;;;;5040922;28;20120;-79
2022/07/22 06:16:57;;;;;;;3.63;1.30;;;17.10;99.90;;;;;;5041868;28;20041;-80
2022/07/22 06:19:24;;;;;;;3.78;1.08;;;17.20;99.90;;;;;;5042563;28;20048;-80
2022/07/22 06:21:50;;;;;;;6.93;1.25;;;17.30;99.90;;;;;;5040449;28;20017;-80
2022/07/22 06:24:16;;;;;;;2.28;1.10;;;17.40;99.90;;;;;;5039681;28;20373;-80
2022/07/22 06:26:41;;;;;;;2.78;1.00;;;17.40;99.90;;;;;;5039191;28;20485;-81
2022/07/22 06:29:07;;;;;;;2.78;0.80;;;17.30;99.90;;;;;;5033012;28;20025;-81
2022/07/22 06:31:32;;;;;;;1.52;0.50;;;17.40;99.90;;;;;;5042412;28;20025;-80
2022/07/22 06:33:58;;;;;;;2.72;0.80;;;17.30;99.90;;;;;;5041499;28;20121;-80
2022/07/22 06:36:24;;;;;;;3.97;0.90;;;17.40;99.90;;;;;;5036507;28;20489;-80
2022/07/22 06:38:49;;;;;;;5.80;1.00;;;17.30;99.90;;;;;;5029514;28;20053;-80
2022/07/22 06:41:19;;;;;;;3.67;0.90;;;17.30;99.90;;;;;;5037282;28;20073;-80
2022/07/22 06:43:45;;;;;;;1.43;0.77;;;17.50;99.90;;;;;;5034658;28;20026;-80
2022/07/22 06:46:10;;;;;;;1.92;0.70;;;17.40;99.90;;;;;;5028497;28;20265;-80
2022/07/22 06:48:36;;;;;;;6.93;0.95;;;17.50;99.90;;;;;;5040421;28;20036;-80
2022/07/22 06:51:02;;;;;;;3.22;1.10;;;17.50;99.90;;;;;;5043532;28;20033;-80
2022/07/22 06:53:27;;;;;;;3.97;0.95;;;17.80;99.90;;;;;;5038594;28;20084;-79
2022/07/22 06:55:53;;;;;;;1.63;1.00;;;17.60;99.90;;;;;;5031578;28;20078;-80
2022/07/22 06:58:18;;;;;;;1.75;0.80;;;17.70;99.90;;;;;;5035288;28;20028;-80
2022/07/22 07:00:44;;;;;;;3.05;1.00;;;17.80;99.90;;;;;;5033646;28;20029;-81
2022/07/22 07:03:10;;;;;;;4.43;0.85;;;17.90;99.90;;;;;;5036491;28;20481;-80
2022/07/22 07:05:35;;;;;;;2.67;0.68;;;17.90;99.90;;;;;;5034379;28;20045;-80
2022/07/22 07:08:01;;;;;;;3.75;0.88;;;18.10;99.90;;;;;;5038071;28;20064;-79
2022/07/22 07:10:27;;;;;;;2.78;0.82;;;18.10;99.90;;;;;;5042217;28;20083;-79
2022/07/22 07:12:57;;;;;;;1.65;0.63;;;18.20;99.90;;;;;;5049313;28;20032;-79
2022/07/22 07:15:27;;;;;;;1.77;0.90;;;18.40;99.90;;;;;;5046954;28;20022;-80
2022/07/22 07:17:54;;;;;;;1.85;0.85;;;18.60;99.90;;;;;;5037714;28;20033;-80
2022/07/22 07:20:20;;;;;;;3.63;0.70;;;18.60;99.90;;;;;;5040801;28;20018;-80
2022/07/22 07:22:45;;;;;;;1.23;0.63;;;18.80;99.90;;;;;;5033307;28;20109;-80
2022/07/22 07:25:11;;;;;;;2.00;0.52;;;18.90;99.90;;;;;;5051224;28;20064;-80
2022/07/22 07:27:37;;;;;;;4.68;0.80;;;18.90;99.90;;;;;;5030079;28;20018;-82
2022/07/22 07:30:05;;;;;;;2.10;0.52;;;18.90;99.90;;;;;;5050231;28;20029;-80
2022/07/22 07:32:30;;;;;;;1.40;0.60;;;19.00;99.90;;;;;;5045221;28;20056;-81
2022/07/22 07:34:56;;;;;;;2.53;0.57;;;19.00;99.90;;;;;;5036071;28;20025;-82
2022/07/22 07:37:22;;;;;;;1.38;0.43;;;19.10;99.90;;;;;;5020829;28;20524;-81
2022/07/22 07:39:48;;;;;;;0.88;0.50;;;19.10;99.90;;;;;;5041459;28;20035;-81
2022/07/22 07:42:13;;;;;;;3.30;0.60;;;19.10;99.90;;;;;;5048843;28;20384;-80
2022/07/22 07:44:39;;;;;;;1.45;0.60;;;19.30;99.90;;;;;;5025821;28;20025;-79
2022/07/22 07:47:05;;;;;;;0.82;0.50;;;19.40;99.90;;;;;;5041840;28;20036;-81
2022/07/22 07:49:30;;;;;;;1.13;0.63;;;19.70;99.90;;;;;;5021988;28;20030;-80
2022/07/22 07:51:56;;;;;;;1.52;0.40;;;19.70;99.90;;;;;;5013471;28;20029;-80
2022/07/22 07:54:22;;;;;;;1.55;0.40;;;19.50;99.90;;;;;;5023942;28;20346;-80
2022/07/22 07:56:48;;;;;;;3.42;0.60;;;19.60;99.90;;;;;;5034215;28;20029;-81
2022/07/22 07:59:13;;;;;;;2.63;0.70;;;19.70;99.90;;;;;;5036020;28;20024;-81
2022/07/22 08:01:39;;;;;;;0.90;0.50;;;19.70;99.90;;;;;;5035423;28;20071;-81
2022/07/22 08:04:04;;;;;;;0.93;0.60;;;19.70;99.90;;;;;;5025299;28;20046;-80
2022/07/22 08:06:30;;;;;;;1.42;0.43;;;20.00;99.90;;;;;;5013652;28;20028;-82
2022/07/22 08:08:56;;;;;;;1.20;0.40;;;20.00;99.90;;;;;;5013797;28;20488;-83
2022/07/22 08:11:22;;;;;;;2.25;0.40;;;19.90;99.90;;;;;;5013808;28;20101;-82
2022/07/22 08:13:49;;;;;;;1.48;0.40;;;20.20;99.90;;;;;;5013973;28;20022;-81
2022/07/22 08:16:14;;;;;;;1.00;0.30;;;20.20;99.90;;;;;;5013897;28;20454;-81
2022/07/22 08:18:40;;;;;;;0.60;0.40;;;20.40;99.90;;;;;;5014290;28;20022;-85
2022/07/22 08:21:06;;;;;;;4.18;0.30;;;20.70;99.90;;;;;;5015461;28;20045;-83
2022/07/22 08:23:32;;;;;;;0.30;0.20;;;20.70;99.90;;;;;;5017572;28;20393;-83
2022/07/22 08:25:57;;;;;;;1.67;0.47;;;21.30;99.90;;;;;;5017605;28;20489;-83
2022/07/22 08:28:23;;;;;;;0.30;0.30;;;21.20;99.90;;;;;;5019960;28;20033;-81
2022/07/22 08:30:48;;;;;;;3.15;0.35;;;21.30;99.90;;;;;;5017389;28;20462;-81
2022/07/22 08:33:14;;;;;;;0.35;0.30;;;21.50;99.90;;;;;;5015231;28;20061;-81
2022/07/22 08:35:40;;;;;;;1.90;0.40;;;21.20;99.90;;;;;;5020191;28;20541;-82
2022/07/22 08:38:05;;;;;;;1.10;0.30;;;21.00;99.90;;;;;;5035744;28;20465;-79
2022/07/22 08:40:31;;;;;;;0.50;0.20;;;20.70;99.90;;;;;;5027278;28;20017;-81
2022/07/22 08:42:57;;;;;;;0.77;0.40;;;20.60;99.90;;;;;;5055385;28;20063;-82
2022/07/22 08:45:23;;;;;;;1.58;0.35;;;20.50;99.90;;;;;;5045625;28;20026;-83
2022/07/22 08:47:51;;;;;;;2.20;0.50;;;20.30;99.90;;;;;;5052465;28;20029;-82
2022/07/22 08:50:17;;;;;;;0.68;0.40;;;20.70;99.90;;;;;;5035571;28;20365;-83
2022/07/22 08:52:43;;;;;;;0.68;0.25;;;20.30;99.90;;;;;;5024528;28;20175;-84
2022/07/22 08:55:09;;;;;;;3.70;1.05;;;20.60;99.90;;;;;;5019471;28;20105;-84
2022/07/22 08:57:36;;;;;;;0.73;0.30;;;20.30;99.90;;;;;;5022345;28;20486;-83
2022/07/22 09:00:09;;;;;;;1.85;0.50;;;20.30;99.90;;;;;;5016665;28;20062;-87
2022/07/22 09:02:40;;;;;;;2.13;0.60;;;20.30;99.90;;;;;;5030643;28;20032;-87
2022/07/22 09:05:08;;;;;;;3.17;0.63;;;20.20;99.90;;;;;;5044023;28;20842;-87
2022/07/22 09:07:36;;;;;;;1.30;0.52;;;20.20;99.90;;;;;;5034550;28;20040;-87
2022/07/22 09:10:12;;;;;;;1.27;0.30;;;20.20;99.90;;;;;;5014955;28;20033;-88
2022/07/22 09:12:57;;;;;;;1.05;0.20;;;20.00;99.90;;;;;;5029025;28;20021;-86
2022/07/22 09:15:37;;;;;;;1.10;0.60;;;19.90;99.90;;;;;;5016319;28;20076;-87
2022/07/22 09:18:03;;;;;;;;;;;19.80;99.90;;;;;;5016176;28;20022;-88
2022/07/22 09:20:29;;;;;;;1.10;0.50;;;19.70;99.90;;;;;;5017810;28;19968;-87
2022/07/22 09:22:55;;;;;;;2.20;0.40;;;19.60;99.90;;;;;;5017138;28;20038;-85
2022/07/22 09:25:28;;;;;;;1.40;0.50;;;19.60;99.90;;;;;;5017114;28;20032;-82
2022/07/22 09:28:08;;;;;;;2.22;0.50;;;19.90;99.90;;;;;;5039862;28;20027;-83
2022/07/22 09:30:45;;;;;;;0.85;0.30;;;20.10;99.90;;;;;;5016956;28;20030;-83
2022/07/22 09:33:11;;;;;;;4.57;0.47;;;20.30;99.90;;;;;;4992292;28;1237501;-83
2022/07/22 09:35:39;;;;;;;1.45;0.30;;;20.30;99.90;;;;;;5035822;28;20037;-84
2022/07/22 09:38:07;;;;;;;3.60;0.40;;;20.70;99.90;;;;;;5035906;28;20029;-82
2022/07/22 09:40:47;;;;;;;1.17;0.40;;;21.00;99.90;;;;;;5034957;28;20025;-83
2022/07/22 09:43:18;;;;;;;1.42;0.47;;;21.30;99.90;;;;;;5036797;28;20029;-81
2022/07/22 09:45:58;;;;;;;1.17;0.40;;;21.80;99.90;;;;;;5038517;28;20034;-81
2022/07/22 09:48:25;;;;;;;1.40;0.35;;;22.30;99.90;;;;;;5039995;28;20036;-81
2022/07/22 09:50:52;;;;;;;4.15;0.52;;;22.50;99.90;;;;;;5036719;28;20033;-82
2022/07/22 09:53:20;;;;;;;1.38;0.40;;;22.60;99.90;;;;;;5034642;28;20097;-81
2022/07/22 09:55:46;;;;;;;1.17;0.40;;;22.00;99.90;;;;;;5026519;28;20025;-81
2022/07/22 09:58:12;;;;;;;1.20;0.63;;;21.60;99.90;;;;;;5035148;28;20381;-82
2022/07/22 10:00:41;;;;;;;2.67;0.50;;;21.30;99.90;;;;;;5034973;28;20033;-82
2022/07/22 10:03:12;;;;;;;1.35;0.60;;;21.60;99.90;;;;;;5034976;28;20339;-82
2022/07/22 10:05:41;;;;;;;2.65;0.40;;;21.40;99.90;;;;;;5034851;28;20112;-82
2022/07/22 10:08:08;;;;;;;3.05;0.60;;;21.10;99.90;;;;;;5034950;28;20048;-82
2022/07/22 10:10:35;;;;;;;2.75;0.40;;;21.30;99.90;;;;;;5034904;28;20025;-82
2022/07/22 10:13:02;;;;;;;2.15;0.55;;;21.10;99.90;;;;;;5034680;28;20037;-83
2022/07/22 10:15:30;;;;;;;1.80;0.50;;;21.00;99.90;;;;;;5034193;28;20022;-81
2022/07/22 10:17:58;;;;;;;1.25;0.43;;;21.20;99.90;;;;;;5034479;28;20033;-81
2022/07/22 10:20:32;;;;;;;1.80;0.52;;;21.30;99.90;;;;;;5034287;28;20033;-81
2022/07/22 10:22:59;;;;;;;2.75;0.75;;;21.60;99.90;;;;;;5034006;28;20029;-81
2022/07/22 10:25:29;;;;;;;4.07;0.70;;;21.80;99.90;;;;;;5034110;28;20385;-82
2022/07/22 10:27:55;;;;;;;;;;;22.10;99.90;;;;;;5034732;28;20029;-82
2022/07/22 10:30:31;;;;;;;1.75;0.70;;;21.70;99.90;;;;;;5034103;28;20406;-81
2022/07/22 10:33:07;;;;;;;2.22;0.50;;;21.80;99.90;;;;;;5033845;28;20053;-81
2022/07/22 10:35:51;;;;;;;2.55;0.50;;;22.30;99.90;;;;;;5034033;28;20033;-81
2022/07/22 10:38:19;;;;;;;1.50;0.50;;;22.50;99.90;;;;;;5014163;28;20021;-81
2022/07/22 10:40:53;;;;;;;1.58;0.70;;;22.70;99.90;;;;;;5020296;28;20024;-81
2022/07/22 10:43:25;;;;;;;1.35;0.63;;;22.30;99.90;;;;;;5041382;28;20440;-82
2022/07/22 10:45:57;;;;;;;2.63;0.60;;;23.10;99.90;;;;;;5034077;28;20374;-81
2022/07/22 10:48:42;;;;;;;2.30;0.52;;;23.50;99.90;;;;;;5034160;28;20112;-80
2022/07/22 10:51:17;;;;;;;3.25;0.73;;;23.30;99.90;;;;;;5020778;28;20398;-83
2022/07/22 10:54:17;;;;;;;1.77;0.90;;;23.10;99.90;;;;;;5022809;28;20097;-83
2022/07/22 10:56:42;;;;;;;;;;;22.90;99.90;;;;;;5001762;28;20567;-82
2022/07/22 10:59:10;;;;;;;1.75;0.70;;;22.50;99.90;;;;;;5014445;28;19913;-82
2022/07/22 11:01:38;;;;;;;1.40;0.50;;;22.70;99.90;;;;;;5032444;28;20108;-82
2022/07/22 11:04:14;;;;;;;2.67;0.63;;;23.00;99.90;;;;;;5014229;28;20035;-82
2022/07/22 11:06:40;;;;;;;1.92;0.73;;;23.40;99.90;;;;;;5014492;28;20028;-82
2022/07/22 11:09:10;;;;;;;2.60;0.60;;;23.00;99.90;;;;;;5027499;28;20485;-83
2022/07/22 11:11:49;;;;;;;2.42;0.80;;;22.60;99.90;;;;;;5034199;28;20408;-83
2022/07/22 11:14:16;;;;;;;1.58;0.85;;;22.50;99.90;;;;;;5034194;28;20025;-82
2022/07/22 11:16:44;;;;;;;1.52;0.55;;;22.40;99.90;;;;;;5034415;28;20351;-82
2022/07/22 11:19:10;;;;;;;2.53;0.80;;;22.30;99.90;;;;;;5034699;28;20021;-82
2022/07/22 11:21:36;;;;;;;1.63;0.73;;;22.20;99.90;;;;;;5035376;28;20368;-82
2022/07/22 11:24:04;;;;;;;1.98;0.52;;;22.00;99.90;;;;;;5034606;28;20104;-82
2022/07/22 11:26:48;;;;;;;4.90;0.90;;;22.30;99.90;;;;;;5034338;28;20116;-82
2022/07/22 11:29:28;;;;;;;1.33;0.55;;;23.00;99.90;;;;;;5034419;28;20117;-82
2022/07/22 11:31:56;;;;;;;2.03;0.70;;;23.00;99.90;;;;;;5037889;28;20025;-82
2022/07/22 11:34:22;;;;;;;1.27;0.60;;;23.00;99.90;;;;;;5036332;28;20026;-83
2022/07/22 11:36:49;;;;;;;1.33;0.50;;;22.70;99.90;;;;;;5051022;28;20459;-83
2022/07/22 11:39:28;;;;;;;1.23;0.68;;;22.70;99.90;;;;;;5036672;28;20110;-82
2022/07/22 11:41:57;;;;;;;1.67;0.60;;;22.70;99.90;;;;;;5029325;28;20039;-82
2022/07/22 11:44:25;;;;;;;1.02;0.63;;;22.80;99.90;;;;;;5015174;28;20021;-82
2022/07/22 11:46:51;;;;;;;4.25;1.10;;;23.00;99.90;;;;;;5015168;28;20358;-82
2022/07/22 11:49:20;;;;;;;1.85;0.70;;;23.20;99.90;;;;;;5014647;28;20022;-83
2022/07/22 11:51:46;;;;;;;1.23;0.70;;;23.30;99.90;;;;;;5017665;28;20017;-81
2022/07/22 11:54:12;;;;;;;2.67;0.85;;;23.30;99.90;;;;;;5016505;28;20028;-82
2022/07/22 11:56:38;;;;;;;1.13;0.60;;;23.50;99.90;;;;;;5021841;28;20026;-82
2022/07/22 11:59:05;;;;;;;0.90;0.70;;;23.60;99.90;;;;;;5025236;28;20022;-82
2022/07/22 12:01:33;;;;;;;2.38;0.60;;;23.40;99.90;;;;;;5022950;28;20029;-82
2022/07/22 12:04:04;;;;;;;1.15;0.50;;;23.10;99.90;;;;;;5024019;28;20021;-81
2022/07/22 12:06:34;;;;;;;1.23;0.82;;;22.80;99.90;;;;;;5016788;28;20064;-82
2022/07/22 12:09:06;;;;;;;2.35;0.77;;;22.80;99.90;;;;;;5026289;28;20057;-81
2022/07/22 12:11:32;;;;;;;1.42;0.80;;;22.80;99.90;;;;;;5028237;28;20021;-82
2022/07/22 12:14:09;;;;;;;3.65;0.60;;;22.80;99.90;;;;;;5014297;28;20026;-82
2022/07/22 12:16:35;;;;;;;2.25;0.93;;;22.40;99.90;;;;;;5013672;28;20033;-82
2022/07/22 12:19:05;;;;;;;2.45;1.10;;;22.10;99.90;;;;;;5018838;28;20025;-82
2022/07/22 12:21:34;;;;;;;2.90;1.10;;;22.00;99.90;;;;;;5034615;28;20064;-81
2022/07/22 12:24:06;;;;;;;3.72;0.90;;;22.20;99.90;;;;;;5060500;28;20068;-81
2022/07/22 12:26:43;;;;;;;3.80;1.00;;;21.80;99.90;;;;;;5048164;28;20029;-81
2022/07/22 12:29:16;;;;;;;1.80;0.85;;;21.90;99.90;;;;;;5022284;28;20038;-82
2022/07/22 12:31:44;;;;;;;2.40;0.80;;;21.60;99.90;;;;;;5048502;28;20021;-82
2022/07/22 12:34:10;;;;;;;1.75;0.90;;;21.80;99.90;;;;;;5042375;28;20034;-81
2022/07/22 12:36:36;;;;;;;1.65;0.93;;;22.10;99.90;;;;;;5024041;28;20474;-82
2022/07/22 12:39:18;;;;;;;2.83;1.00;;;22.40;99.90;;;;;;5025582;28;20100;-80
2022/07/22 12:41:53;;;;;;;2.72;1.13;;;23.00;99.90;;;;;;5020931;28;20394;-80
2022/07/22 12:44:24;;;;;;;2.15;0.73;;;23.30;99.90;;;;;;5029387;28;20036;-80
2022/07/22 12:46:53;;;;;;;3.05;0.80;;;23.60;99.90;;;;;;5025550;28;20026;-79
2022/07/22 12:49:21;;;;;;;1.52;0.80;;;24.20;99.90;;;;;;5025244;28;20036;-80